Burntout, Alabama
Current Conditions -  °F | °C
As of 1:56 AM on Monday 22 Dec 2014 (Local Time) from K1M4 Reporting Station
Haze Haze  
Wind Chill: 45°   Ceiling: 500
Heat Index: 48°   Visibility: 3mi
Dew Point: 48°   Wind: 6mph
Humidity: 100%   Direction: 140°SE
Pressure: 29.98"   Gusts: NA
Location:  34.3655°N, 88.0818°W
Report Text: K1M4 220756Z AUTO 14005KT 3SM BR OVC005 09/09 A2998 RMK AO2 T00880088 SLP164 $
Loading
Personal Weather Stations






























Interactive Weather Map New forecast layout! Learn more

10-Day Weather Forecast

Advertisements
Track Severe Weather on mobile